sensor_id;sensor_type;location;lat;lon;timestamp;P1;durP1;ratioP1;P2;durP2;ratioP2
24619;SDS011;12763;55.802;37.404;2022-12-11T00:01:47;17.92;;;9.98;;
24619;SDS011;12763;55.802;37.404;2022-12-11T00:04:15;18.77;;;10.70;;
24619;SDS011;12763;55.802;37.404;2022-12-11T00:06:42;21.98;;;11.10;;
24619;SDS011;12763;55.802;37.404;2022-12-11T00:09:08;20.35;;;11.35;;
24619;SDS011;12763;55.802;37.404;2022-12-11T00:11:38;20.83;;;11.73;;
24619;SDS011;12763;55.802;37.404;2022-12-11T00:14:07;24.50;;;12.10;;
24619;SDS011;12763;55.802;37.404;2022-12-11T00:16:33;24.92;;;12.77;;
24619;SDS011;12763;55.802;37.404;2022-12-11T00:19:05;30.33;;;12.70;;
24619;SDS011;12763;55.802;37.404;2022-12-11T00:21:38;26.73;;;12.63;;
24619;SDS011;12763;55.802;37.404;2022-12-11T00:24:07;26.20;;;13.48;;
24619;SDS011;12763;55.802;37.404;2022-12-11T00:26:33;30.85;;;13.50;;
24619;SDS011;12763;55.802;37.404;2022-12-11T00:28:59;32.03;;;13.63;;
24619;SDS011;12763;55.802;37.404;2022-12-11T00:31:26;31.27;;;13.77;;
24619;SDS011;12763;55.802;37.404;2022-12-11T00:33:52;29.50;;;14.10;;
24619;SDS011;12763;55.802;37.404;2022-12-11T00:36:22;25.80;;;13.15;;
24619;SDS011;12763;55.802;37.404;2022-12-11T00:38:56;24.40;;;11.98;;
24619;SDS011;12763;55.802;37.404;2022-12-11T00:41:22;24.45;;;11.50;;
24619;SDS011;12763;55.802;37.404;2022-12-11T00:43:51;26.70;;;10.18;;
24619;SDS011;12763;55.802;37.404;2022-12-11T00:46:29;20.85;;;10.35;;
24619;SDS011;12763;55.802;37.404;2022-12-11T00:49:08;25.05;;;9.45;;
24619;SDS011;12763;55.802;37.404;2022-12-11T00:51:37;17.73;;;9.48;;
24619;SDS011;12763;55.802;37.404;2022-12-11T00:54:09;18.73;;;8.63;;
24619;SDS011;12763;55.802;37.404;2022-12-11T00:56:38;19.65;;;8.40;;
24619;SDS011;12763;55.802;37.404;2022-12-11T00:59:04;18.55;;;9.07;;
24619;SDS011;12763;55.802;37.404;2022-12-11T01:01:31;18.63;;;8.60;;
24619;SDS011;12763;55.802;37.404;2022-12-11T01:03:58;16.98;;;8.45;;
24619;SDS011;12763;55.802;37.404;2022-12-11T01:06:25;19.60;;;9.00;;
24619;SDS011;12763;55.802;37.404;2022-12-11T01:08:53;21.90;;;8.15;;
24619;SDS011;12763;55.802;37.404;2022-12-11T01:11:39;23.48;;;8.52;;
24619;SDS011;12763;55.802;37.404;2022-12-11T01:14:07;20.30;;;8.25;;
24619;SDS011;12763;55.802;37.404;2022-12-11T01:16:41;15.18;;;8.27;;
24619;SDS011;12763;55.802;37.404;2022-12-11T01:19:07;20.83;;;9.05;;
24619;SDS011;12763;55.802;37.404;2022-12-11T01:21:39;15.55;;;7.97;;
24619;SDS011;12763;55.802;37.404;2022-12-11T01:24:05;20.70;;;9.00;;
24619;SDS011;12763;55.802;37.404;2022-12-11T01:26:35;16.95;;;7.90;;
24619;SDS011;12763;55.802;37.404;2022-12-11T01:29:01;17.00;;;8.65;;
24619;SDS011;12763;55.802;37.404;2022-12-11T01:31:31;22.02;;;10.00;;
24619;SDS011;12763;55.802;37.404;2022-12-11T01:33:58;20.10;;;8.82;;
24619;SDS011;12763;55.802;37.404;2022-12-11T01:36:26;16.67;;;8.85;;
24619;SDS011;12763;55.802;37.404;2022-12-11T01:38:56;15.05;;;7.68;;
24619;SDS011;12763;55.802;37.404;2022-12-11T01:41:22;19.55;;;8.65;;
24619;SDS011;12763;55.802;37.404;2022-12-11T01:43:55;16.58;;;8.13;;
24619;SDS011;12763;55.802;37.404;2022-12-11T01:46:22;17.58;;;8.73;;
24619;SDS011;12763;55.802;37.404;2022-12-11T01:48:57;19.48;;;8.75;;
24619;SDS011;12763;55.802;37.404;2022-12-11T01:51:27;20.65;;;8.25;;
24619;SDS011;12763;55.802;37.404;2022-12-11T01:53:57;24.60;;;8.63;;
24619;SDS011;12763;55.802;37.404;2022-12-11T01:56:33;20.83;;;8.93;;
24619;SDS011;12763;55.802;37.404;2022-12-11T01:59:04;18.23;;;7.78;;
24619;SDS011;12763;55.802;37.404;2022-12-11T02:01:40;19.48;;;8.35;;
24619;SDS011;12763;55.802;37.404;2022-12-11T02:04:16;19.45;;;8.75;;
24619;SDS011;12763;55.802;37.404;2022-12-11T02:06:48;16.67;;;8.50;;
24619;SDS011;12763;55.802;37.404;2022-12-11T02:09:27;19.17;;;8.45;;
24619;SDS011;12763;55.802;37.404;2022-12-11T02:12:07;17.25;;;9.02;;
24619;SDS011;12763;55.802;37.404;2022-12-11T02:20:36;19.83;;;8.93;;
24619;SDS011;12763;55.802;37.404;2022-12-11T02:26:16;20.55;;;8.48;;
24619;SDS011;12763;55.802;37.404;2022-12-11T02:28:55;22.05;;;8.27;;
24619;SDS011;12763;55.802;37.404;2022-12-11T02:36:47;27.02;;;8.07;;
24619;SDS011;12763;55.802;37.404;2022-12-11T02:39:21;20.35;;;8.60;;
24619;SDS011;12763;55.802;37.404;2022-12-11T02:41:56;17.85;;;8.32;;
24619;SDS011;12763;55.802;37.404;2022-12-11T02:44:28;21.48;;;8.48;;
24619;SDS011;12763;55.802;37.404;2022-12-11T02:46:57;17.73;;;8.02;;
24619;SDS011;12763;55.802;37.404;2022-12-11T02:49:27;23.75;;;8.25;;
24619;SDS011;12763;55.802;37.404;2022-12-11T02:52:00;19.10;;;8.30;;
24619;SDS011;12763;55.802;37.404;2022-12-11T02:54:34;24.80;;;8.30;;
24619;SDS011;12763;55.802;37.404;2022-12-11T02:57:08;21.17;;;8.07;;
24619;SDS011;12763;55.802;37.404;2022-12-11T02:59:54;18.85;;;7.43;;
24619;SDS011;12763;55.802;37.404;2022-12-11T03:02:21;19.50;;;8.10;;
24619;SDS011;12763;55.802;37.404;2022-12-11T03:04:48;23.75;;;8.32;;
24619;SDS011;12763;55.802;37.404;2022-12-11T03:07:23;21.42;;;8.27;;
24619;SDS011;12763;55.802;37.404;2022-12-11T03:09:56;18.35;;;7.93;;
24619;SDS011;12763;55.802;37.404;2022-12-11T03:12:29;24.98;;;9.30;;
24619;SDS011;12763;55.802;37.404;2022-12-11T03:14:57;20.73;;;7.70;;
24619;SDS011;12763;55.802;37.404;2022-12-11T03:17:34;23.83;;;8.48;;
24619;SDS011;12763;55.802;37.404;2022-12-11T03:23:08;24.58;;;9.43;;
24619;SDS011;12763;55.802;37.404;2022-12-11T03:25:57;21.27;;;8.40;;
24619;SDS011;12763;55.802;37.404;2022-12-11T03:28:28;20.15;;;7.65;;
24619;SDS011;12763;55.802;37.404;2022-12-11T03:31:01;22.80;;;8.48;;
24619;SDS011;12763;55.802;37.404;2022-12-11T03:33:33;21.35;;;8.27;;
24619;SDS011;12763;55.802;37.404;2022-12-11T03:36:29;28.98;;;8.90;;
24619;SDS011;12763;55.802;37.404;2022-12-11T03:42:09;24.13;;;8.50;;
24619;SDS011;12763;55.802;37.404;2022-12-11T03:44:38;22.52;;;8.75;;
24619;SDS011;12763;55.802;37.404;2022-12-11T03:47:07;21.95;;;8.50;;
24619;SDS011;12763;55.802;37.404;2022-12-11T03:49:39;18.35;;;8.77;;
24619;SDS011;12763;55.802;37.404;2022-12-11T03:52:23;23.73;;;8.52;;
24619;SDS011;12763;55.802;37.404;2022-12-11T03:54:58;23.80;;;7.35;;
24619;SDS011;12763;55.802;37.404;2022-12-11T03:57:29;32.38;;;9.45;;
24619;SDS011;12763;55.802;37.404;2022-12-11T03:59:59;25.60;;;9.88;;
24619;SDS011;12763;55.802;37.404;2022-12-11T04:02:42;40.45;;;10.18;;
24619;SDS011;12763;55.802;37.404;2022-12-11T04:05:31;23.38;;;8.73;;
24619;SDS011;12763;55.802;37.404;2022-12-11T04:07:58;26.15;;;8.63;;
24619;SDS011;12763;55.802;37.404;2022-12-11T04:10:27;27.75;;;10.00;;
24619;SDS011;12763;55.802;37.404;2022-12-11T04:12:59;29.73;;;9.85;;
24619;SDS011;12763;55.802;37.404;2022-12-11T04:15:29;24.65;;;9.38;;
24619;SDS011;12763;55.802;37.404;2022-12-11T04:17:58;31.88;;;10.07;;
24619;SDS011;12763;55.802;37.404;2022-12-11T04:20:52;34.67;;;9.25;;
24619;SDS011;12763;55.802;37.404;2022-12-11T04:23:42;30.80;;;9.90;;
24619;SDS011;12763;55.802;37.404;2022-12-11T04:26:27;37.40;;;10.70;;
24619;SDS011;12763;55.802;37.404;2022-12-11T04:28:59;28.13;;;10.80;;
24619;SDS011;12763;55.802;37.404;2022-12-11T04:31:33;35.93;;;11.30;;
24619;SDS011;12763;55.802;37.404;2022-12-11T04:34:01;30.38;;;10.48;;
24619;SDS011;12763;55.802;37.404;2022-12-11T04:36:39;34.28;;;11.10;;
24619;SDS011;12763;55.802;37.404;2022-12-11T04:39:06;39.28;;;11.43;;
24619;SDS011;12763;55.802;37.404;2022-12-11T04:41:35;32.25;;;10.85;;
24619;SDS011;12763;55.802;37.404;2022-12-11T04:44:03;33.72;;;10.43;;
24619;SDS011;12763;55.802;37.404;2022-12-11T04:46:33;37.75;;;10.95;;
24619;SDS011;12763;55.802;37.404;2022-12-11T04:49:03;28.52;;;11.63;;
24619;SDS011;12763;55.802;37.404;2022-12-11T04:51:30;29.17;;;10.77;;
24619;SDS011;12763;55.802;37.404;2022-12-11T04:54:27;28.05;;;11.02;;
24619;SDS011;12763;55.802;37.404;2022-12-11T04:56:54;33.90;;;9.68;;
24619;SDS011;12763;55.802;37.404;2022-12-11T04:59:24;32.42;;;10.93;;
24619;SDS011;12763;55.802;37.404;2022-12-11T05:01:51;36.10;;;10.57;;
24619;SDS011;12763;55.802;37.404;2022-12-11T05:04:20;28.23;;;10.57;;
24619;SDS011;12763;55.802;37.404;2022-12-11T05:06:48;35.45;;;10.52;;
24619;SDS011;12763;55.802;37.404;2022-12-11T05:09:17;38.85;;;11.13;;
24619;SDS011;12763;55.802;37.404;2022-12-11T05:11:44;37.03;;;10.95;;
24619;SDS011;12763;55.802;37.404;2022-12-11T05:14:11;35.22;;;11.45;;
24619;SDS011;12763;55.802;37.404;2022-12-11T05:16:37;36.55;;;11.77;;
24619;SDS011;12763;55.802;37.404;2022-12-11T05:19:07;47.15;;;13.68;;
24619;SDS011;12763;55.802;37.404;2022-12-11T05:21:34;30.77;;;10.93;;
24619;SDS011;12763;55.802;37.404;2022-12-11T05:24:06;34.17;;;10.95;;
24619;SDS011;12763;55.802;37.404;2022-12-11T05:26:38;29.48;;;10.40;;
24619;SDS011;12763;55.802;37.404;2022-12-11T05:29:13;25.40;;;9.13;;
24619;SDS011;12763;55.802;37.404;2022-12-11T05:31:45;37.88;;;10.82;;
24619;SDS011;12763;55.802;37.404;2022-12-11T05:34:12;34.63;;;12.13;;
24619;SDS011;12763;55.802;37.404;2022-12-11T05:36:39;33.05;;;10.90;;
24619;SDS011;12763;55.802;37.404;2022-12-11T05:39:05;36.88;;;11.35;;
24619;SDS011;12763;55.802;37.404;2022-12-11T05:41:32;39.40;;;11.25;;
24619;SDS011;12763;55.802;37.404;2022-12-11T05:44:04;35.88;;;11.65;;
24619;SDS011;12763;55.802;37.404;2022-12-11T05:46:30;31.80;;;11.85;;
24619;SDS011;12763;55.802;37.404;2022-12-11T05:49:00;36.97;;;11.02;;
24619;SDS011;12763;55.802;37.404;2022-12-11T05:51:29;34.38;;;11.18;;
24619;SDS011;12763;55.802;37.404;2022-12-11T05:54:01;36.80;;;10.90;;
24619;SDS011;12763;55.802;37.404;2022-12-11T05:56:32;33.05;;;10.85;;
24619;SDS011;12763;55.802;37.404;2022-12-11T05:59:00;34.80;;;11.25;;
24619;SDS011;12763;55.802;37.404;2022-12-11T06:04:08;31.45;;;10.93;;
24619;SDS011;12763;55.802;37.404;2022-12-11T06:06:37;31.67;;;10.43;;
24619;SDS011;12763;55.802;37.404;2022-12-11T06:09:05;34.15;;;10.00;;
24619;SDS011;12763;55.802;37.404;2022-12-11T06:11:35;33.20;;;9.45;;
24619;SDS011;12763;55.802;37.404;2022-12-11T06:14:04;25.38;;;10.23;;
24619;SDS011;12763;55.802;37.404;2022-12-11T06:16:30;33.90;;;11.65;;
24619;SDS011;12763;55.802;37.404;2022-12-11T06:18:57;27.52;;;10.07;;
24619;SDS011;12763;55.802;37.404;2022-12-11T06:21:30;29.40;;;12.30;;
24619;SDS011;12763;55.802;37.404;2022-12-11T06:23:58;31.60;;;10.85;;
24619;SDS011;12763;55.802;37.404;2022-12-11T06:26:34;30.05;;;10.98;;
24619;SDS011;12763;55.802;37.404;2022-12-11T06:29:00;45.20;;;11.43;;
24619;SDS011;12763;55.802;37.404;2022-12-11T06:31:36;36.00;;;11.18;;
24619;SDS011;12763;55.802;37.404;2022-12-11T06:34:03;35.92;;;11.52;;
24619;SDS011;12763;55.802;37.404;2022-12-11T06:36:29;30.13;;;11.20;;
24619;SDS011;12763;55.802;37.404;2022-12-11T06:38:58;28.45;;;10.80;;
24619;SDS011;12763;55.802;37.404;2022-12-11T06:41:29;40.35;;;11.38;;
24619;SDS011;12763;55.802;37.404;2022-12-11T06:43:55;35.30;;;11.90;;
24619;SDS011;12763;55.802;37.404;2022-12-11T06:46:21;32.90;;;10.98;;
24619;SDS011;12763;55.802;37.404;2022-12-11T06:48:50;33.35;;;11.63;;
24619;SDS011;12763;55.802;37.404;2022-12-11T06:51:19;41.75;;;12.35;;
24619;SDS011;12763;55.802;37.404;2022-12-11T06:53:49;40.85;;;11.80;;
24619;SDS011;12763;55.802;37.404;2022-12-11T06:56:18;32.92;;;13.00;;
24619;SDS011;12763;55.802;37.404;2022-12-11T06:58:48;32.63;;;12.85;;
24619;SDS011;12763;55.802;37.404;2022-12-11T07:01:22;24.45;;;10.00;;
24619;SDS011;12763;55.802;37.404;2022-12-11T07:03:57;32.50;;;10.95;;
24619;SDS011;12763;55.802;37.404;2022-12-11T07:06:26;27.63;;;10.35;;
24619;SDS011;12763;55.802;37.404;2022-12-11T07:08:56;32.22;;;10.45;;
24619;SDS011;12763;55.802;37.404;2022-12-11T07:11:23;33.50;;;11.98;;
24619;SDS011;12763;55.802;37.404;2022-12-11T07:13:49;38.13;;;10.82;;
24619;SDS011;12763;55.802;37.404;2022-12-11T07:16:19;29.05;;;10.77;;
24619;SDS011;12763;55.802;37.404;2022-12-11T07:18:46;29.90;;;10.95;;
24619;SDS011;12763;55.802;37.404;2022-12-11T07:21:14;29.35;;;10.57;;
24619;SDS011;12763;55.802;37.404;2022-12-11T07:23:40;28.75;;;11.35;;
24619;SDS011;12763;55.802;37.404;2022-12-11T07:26:08;27.67;;;11.32;;
24619;SDS011;12763;55.802;37.404;2022-12-11T07:28:40;29.27;;;11.73;;
24619;SDS011;12763;55.802;37.404;2022-12-11T07:31:10;28.35;;;10.98;;
24619;SDS011;12763;55.802;37.404;2022-12-11T07:33:41;27.60;;;12.35;;
24619;SDS011;12763;55.802;37.404;2022-12-11T07:36:10;29.83;;;11.13;;
24619;SDS011;12763;55.802;37.404;2022-12-11T07:38:38;35.15;;;11.50;;
24619;SDS011;12763;55.802;37.404;2022-12-11T07:41:10;31.25;;;9.88;;
24619;SDS011;12763;55.802;37.404;2022-12-11T07:43:52;40.65;;;12.65;;
24619;SDS011;12763;55.802;37.404;2022-12-11T07:46:22;24.63;;;10.20;;
24619;SDS011;12763;55.802;37.404;2022-12-11T07:48:53;30.63;;;11.52;;
24619;SDS011;12763;55.802;37.404;2022-12-11T07:51:23;27.17;;;9.57;;
24619;SDS011;12763;55.802;37.404;2022-12-11T07:53:59;26.92;;;10.70;;
24619;SDS011;12763;55.802;37.404;2022-12-11T07:56:33;30.13;;;10.25;;
24619;SDS011;12763;55.802;37.404;2022-12-11T07:59:01;29.90;;;11.18;;
24619;SDS011;12763;55.802;37.404;2022-12-11T08:01:32;26.83;;;11.80;;
24619;SDS011;12763;55.802;37.404;2022-12-11T08:04:02;26.15;;;9.93;;
24619;SDS011;12763;55.802;37.404;2022-12-11T08:06:33;30.00;;;11.98;;
24619;SDS011;12763;55.802;37.404;2022-12-11T08:09:08;24.23;;;10.32;;
24619;SDS011;12763;55.802;37.404;2022-12-11T08:11:37;26.40;;;10.60;;
24619;SDS011;12763;55.802;37.404;2022-12-11T08:14:06;26.15;;;9.93;;
24619;SDS011;12763;55.802;37.404;2022-12-11T08:16:34;26.20;;;11.30;;
24619;SDS011;12763;55.802;37.404;2022-12-11T08:19:00;32.42;;;12.60;;
24619;SDS011;12763;55.802;37.404;2022-12-11T08:21:31;28.35;;;11.13;;
24619;SDS011;12763;55.802;37.404;2022-12-11T08:23:57;23.02;;;10.25;;
24619;SDS011;12763;55.802;37.404;2022-12-11T08:26:27;29.92;;;11.85;;
24619;SDS011;12763;55.802;37.404;2022-12-11T08:28:54;27.75;;;11.02;;
24619;SDS011;12763;55.802;37.404;2022-12-11T08:31:20;28.38;;;10.18;;
24619;SDS011;12763;55.802;37.404;2022-12-11T08:33:47;29.75;;;12.02;;
24619;SDS011;12763;55.802;37.404;2022-12-11T08:36:15;28.80;;;11.50;;
24619;SDS011;12763;55.802;37.404;2022-12-11T08:38:43;22.80;;;11.13;;
24619;SDS011;12763;55.802;37.404;2022-12-11T08:43:47;28.77;;;11.90;;
24619;SDS011;12763;55.802;37.404;2022-12-11T08:46:24;26.30;;;12.02;;
24619;SDS011;12763;55.802;37.404;2022-12-11T08:48:55;22.98;;;11.15;;
24619;SDS011;12763;55.802;37.404;2022-12-11T08:51:25;28.65;;;11.30;;
24619;SDS011;12763;55.802;37.404;2022-12-11T08:53:58;26.38;;;11.18;;
24619;SDS011;12763;55.802;37.404;2022-12-11T08:56:29;21.85;;;10.73;;
24619;SDS011;12763;55.802;37.404;2022-12-11T08:58:58;24.13;;;10.73;;
24619;SDS011;12763;55.802;37.404;2022-12-11T09:01:26;27.38;;;11.82;;
24619;SDS011;12763;55.802;37.404;2022-12-11T09:03:54;25.10;;;10.27;;
24619;SDS011;12763;55.802;37.404;2022-12-11T09:06:22;22.95;;;9.95;;
24619;SDS011;12763;55.802;37.404;2022-12-11T09:08:53;18.73;;;9.20;;
24619;SDS011;12763;55.802;37.404;2022-12-11T09:11:22;33.10;;;11.50;;
24619;SDS011;12763;55.802;37.404;2022-12-11T09:13:50;23.88;;;10.40;;
24619;SDS011;12763;55.802;37.404;2022-12-11T09:16:18;23.58;;;10.55;;
24619;SDS011;12763;55.802;37.404;2022-12-11T09:18:51;24.90;;;11.02;;
24619;SDS011;12763;55.802;37.404;2022-12-11T09:21:28;24.20;;;11.20;;
24619;SDS011;12763;55.802;37.404;2022-12-11T09:23:55;22.95;;;9.57;;
24619;SDS011;12763;55.802;37.404;2022-12-11T09:26:24;23.48;;;10.48;;
24619;SDS011;12763;55.802;37.404;2022-12-11T09:28:53;23.75;;;9.80;;
24619;SDS011;12763;55.802;37.404;2022-12-11T09:31:22;26.65;;;11.13;;
24619;SDS011;12763;55.802;37.404;2022-12-11T09:34:04;24.17;;;11.30;;
24619;SDS011;12763;55.802;37.404;2022-12-11T09:36:32;23.75;;;10.75;;
24619;SDS011;12763;55.802;37.404;2022-12-11T09:39:02;25.38;;;10.50;;
24619;SDS011;12763;55.802;37.404;2022-12-11T09:41:39;24.13;;;11.57;;
24619;SDS011;12763;55.802;37.404;2022-12-11T09:52:16;28.33;;;11.43;;
24619;SDS011;12763;55.802;37.404;2022-12-11T09:54:49;23.98;;;11.82;;
24619;SDS011;12763;55.802;37.404;2022-12-11T09:57:27;23.52;;;11.00;;
24619;SDS011;12763;55.802;37.404;2022-12-11T10:02:44;24.38;;;10.52;;
24619;SDS011;12763;55.802;37.404;2022-12-11T10:05:33;26.30;;;10.85;;
24619;SDS011;12763;55.802;37.404;2022-12-11T10:08:20;26.73;;;12.82;;
24619;SDS011;12763;55.802;37.404;2022-12-11T10:18:39;35.15;;;11.95;;
24619;SDS011;12763;55.802;37.404;2022-12-11T10:21:09;23.63;;;11.70;;
24619;SDS011;12763;55.802;37.404;2022-12-11T10:26:28;30.20;;;12.85;;
24619;SDS011;12763;55.802;37.404;2022-12-11T10:29:14;27.17;;;12.38;;
24619;SDS011;12763;55.802;37.404;2022-12-11T10:31:49;25.63;;;11.55;;
24619;SDS011;12763;55.802;37.404;2022-12-11T10:34:25;22.38;;;11.52;;
24619;SDS011;12763;55.802;37.404;2022-12-11T10:36:58;29.33;;;10.70;;
24619;SDS011;12763;55.802;37.404;2022-12-11T10:39:28;25.70;;;11.13;;
24619;SDS011;12763;55.802;37.404;2022-12-11T10:41:55;25.65;;;11.63;;
24619;SDS011;12763;55.802;37.404;2022-12-11T10:44:28;28.75;;;11.75;;
24619;SDS011;12763;55.802;37.404;2022-12-11T10:47:03;27.85;;;10.45;;
24619;SDS011;12763;55.802;37.404;2022-12-11T10:50:23;29.48;;;11.02;;
24619;SDS011;12763;55.802;37.404;2022-12-11T10:58:01;20.75;;;10.50;;
24619;SDS011;12763;55.802;37.404;2022-12-11T11:00:31;22.92;;;9.40;;
24619;SDS011;12763;55.802;37.404;2022-12-11T11:03:20;18.73;;;9.35;;
24619;SDS011;12763;55.802;37.404;2022-12-11T11:08:38;22.43;;;9.57;;
24619;SDS011;12763;55.802;37.404;2022-12-11T11:11:19;20.52;;;9.77;;
24619;SDS011;12763;55.802;37.404;2022-12-11T11:13:51;22.13;;;11.13;;
24619;SDS011;12763;55.802;37.404;2022-12-11T11:16:29;24.00;;;10.13;;
24619;SDS011;12763;55.802;37.404;2022-12-11T11:18:56;22.65;;;10.77;;
24619;SDS011;12763;55.802;37.404;2022-12-11T11:21:28;16.98;;;8.88;;
24619;SDS011;12763;55.802;37.404;2022-12-11T11:23:58;20.73;;;9.57;;
24619;SDS011;12763;55.802;37.404;2022-12-11T11:26:24;26.65;;;10.68;;
24619;SDS011;12763;55.802;37.404;2022-12-11T11:28:56;22.10;;;10.75;;
24619;SDS011;12763;55.802;37.404;2022-12-11T11:31:32;25.17;;;11.05;;
24619;SDS011;12763;55.802;37.404;2022-12-11T11:34:01;29.73;;;10.20;;
24619;SDS011;12763;55.802;37.404;2022-12-11T11:36:38;26.30;;;11.15;;
24619;SDS011;12763;55.802;37.404;2022-12-11T11:39:19;24.70;;;11.20;;
24619;SDS011;12763;55.802;37.404;2022-12-11T11:42:16;26.17;;;11.05;;
24619;SDS011;12763;55.802;37.404;2022-12-11T11:45:01;21.85;;;10.25;;
24619;SDS011;12763;55.802;37.404;2022-12-11T11:47:35;25.92;;;10.07;;
24619;SDS011;12763;55.802;37.404;2022-12-11T11:50:15;26.73;;;12.45;;
24619;SDS011;12763;55.802;37.404;2022-12-11T11:55:33;25.52;;;11.25;;
24619;SDS011;12763;55.802;37.404;2022-12-11T12:01:03;25.67;;;10.38;;
24619;SDS011;12763;55.802;37.404;2022-12-11T12:03:29;26.65;;;10.98;;
24619;SDS011;12763;55.802;37.404;2022-12-11T12:12:03;22.45;;;10.95;;
24619;SDS011;12763;55.802;37.404;2022-12-11T12:14:31;27.33;;;10.95;;
24619;SDS011;12763;55.802;37.404;2022-12-11T12:25:40;25.55;;;11.68;;
24619;SDS011;12763;55.802;37.404;2022-12-11T12:45:46;24.33;;;11.68;;
24619;SDS011;12763;55.802;37.404;2022-12-11T12:48:15;28.20;;;11.85;;
24619;SDS011;12763;55.802;37.404;2022-12-11T12:50:43;25.55;;;10.80;;
24619;SDS011;12763;55.802;37.404;2022-12-11T12:55:49;24.35;;;11.10;;
24619;SDS011;12763;55.802;37.404;2022-12-11T12:58:26;26.27;;;10.85;;
24619;SDS011;12763;55.802;37.404;2022-12-11T13:01:07;28.67;;;11.23;;
24619;SDS011;12763;55.802;37.404;2022-12-11T13:06:39;25.13;;;10.77;;
24619;SDS011;12763;55.802;37.404;2022-12-11T13:09:12;22.05;;;10.25;;
24619;SDS011;12763;55.802;37.404;2022-12-11T13:11:42;27.13;;;10.98;;
24619;SDS011;12763;55.802;37.404;2022-12-11T13:14:28;23.52;;;11.23;;
24619;SDS011;12763;55.802;37.404;2022-12-11T13:17:33;18.15;;;8.75;;
24619;SDS011;12763;55.802;37.404;2022-12-11T13:20:14;22.35;;;9.65;;
24619;SDS011;12763;55.802;37.404;2022-12-11T13:22:55;20.35;;;9.85;;
24619;SDS011;12763;55.802;37.404;2022-12-11T13:25:44;21.08;;;9.60;;
24619;SDS011;12763;55.802;37.404;2022-12-11T13:33:56;19.70;;;8.98;;
24619;SDS011;12763;55.802;37.404;2022-12-11T13:36:32;25.57;;;9.77;;
24619;SDS011;12763;55.802;37.404;2022-12-11T13:39:15;18.77;;;8.68;;
24619;SDS011;12763;55.802;37.404;2022-12-11T13:41:47;20.15;;;8.55;;
24619;SDS011;12763;55.802;37.404;2022-12-11T13:44:27;19.98;;;8.82;;
24619;SDS011;12763;55.802;37.404;2022-12-11T13:46:56;16.65;;;8.40;;
24619;SDS011;12763;55.802;37.404;2022-12-11T13:49:35;23.25;;;8.82;;
24619;SDS011;12763;55.802;37.404;2022-12-11T13:52:04;18.70;;;8.18;;
24619;SDS011;12763;55.802;37.404;2022-12-11T13:54:33;18.30;;;8.13;;
24619;SDS011;12763;55.802;37.404;2022-12-11T13:57:14;14.82;;;7.90;;
24619;SDS011;12763;55.802;37.404;2022-12-11T13:59:49;19.90;;;7.43;;
24619;SDS011;12763;55.802;37.404;2022-12-11T14:02:30;15.48;;;7.57;;
24619;SDS011;12763;55.802;37.404;2022-12-11T14:05:04;14.90;;;8.13;;
24619;SDS011;12763;55.802;37.404;2022-12-11T14:07:33;14.00;;;7.95;;
24619;SDS011;12763;55.802;37.404;2022-12-11T14:10:28;16.58;;;7.95;;
24619;SDS011;12763;55.802;37.404;2022-12-11T14:13:01;15.23;;;8.27;;
24619;SDS011;12763;55.802;37.404;2022-12-11T14:15:30;15.02;;;7.82;;
24619;SDS011;12763;55.802;37.404;2022-12-11T14:17:59;15.85;;;7.60;;
24619;SDS011;12763;55.802;37.404;2022-12-11T14:20:28;15.50;;;8.10;;
24619;SDS011;12763;55.802;37.404;2022-12-11T14:23:06;20.85;;;7.90;;
24619;SDS011;12763;55.802;37.404;2022-12-11T14:25:38;16.58;;;7.53;;
24619;SDS011;12763;55.802;37.404;2022-12-11T14:28:04;12.75;;;7.05;;
24619;SDS011;12763;55.802;37.404;2022-12-11T14:30:49;17.95;;;7.10;;
24619;SDS011;12763;55.802;37.404;2022-12-11T14:33:16;14.07;;;7.00;;
24619;SDS011;12763;55.802;37.404;2022-12-11T14:35:46;13.18;;;7.72;;
24619;SDS011;12763;55.802;37.404;2022-12-11T14:38:17;15.93;;;7.43;;
24619;SDS011;12763;55.802;37.404;2022-12-11T14:40:52;15.82;;;8.15;;
24619;SDS011;12763;55.802;37.404;2022-12-11T14:43:24;14.50;;;7.50;;
24619;SDS011;12763;55.802;37.404;2022-12-11T14:46:04;14.63;;;6.95;;
24619;SDS011;12763;55.802;37.404;2022-12-11T14:48:42;14.73;;;8.07;;
24619;SDS011;12763;55.802;37.404;2022-12-11T14:51:19;13.77;;;6.80;;
24619;SDS011;12763;55.802;37.404;2022-12-11T14:53:46;19.23;;;8.23;;
24619;SDS011;12763;55.802;37.404;2022-12-11T14:56:18;17.77;;;8.50;;
24619;SDS011;12763;55.802;37.404;2022-12-11T15:01:24;17.63;;;8.20;;
24619;SDS011;12763;55.802;37.404;2022-12-11T15:04:01;17.70;;;7.47;;
24619;SDS011;12763;55.802;37.404;2022-12-11T15:06:30;14.52;;;7.80;;
24619;SDS011;12763;55.802;37.404;2022-12-11T15:12:17;12.90;;;6.63;;
24619;SDS011;12763;55.802;37.404;2022-12-11T15:14:49;16.48;;;7.80;;
24619;SDS011;12763;55.802;37.404;2022-12-11T15:17:18;17.88;;;7.80;;
24619;SDS011;12763;55.802;37.404;2022-12-11T15:19:49;16.67;;;7.05;;
24619;SDS011;12763;55.802;37.404;2022-12-11T15:22:18;15.07;;;7.72;;
24619;SDS011;12763;55.802;37.404;2022-12-11T15:24:50;17.13;;;7.43;;
24619;SDS011;12763;55.802;37.404;2022-12-11T15:36:46;13.75;;;7.32;;
24619;SDS011;12763;55.802;37.404;2022-12-11T15:38:54;12.82;;;7.15;;
24619;SDS011;12763;55.802;37.404;2022-12-11T15:41:23;20.95;;;7.82;;
24619;SDS011;12763;55.802;37.404;2022-12-11T15:43:59;15.98;;;7.28;;
24619;SDS011;12763;55.802;37.404;2022-12-11T15:46:28;14.32;;;7.03;;
24619;SDS011;12763;55.802;37.404;2022-12-11T15:48:55;14.30;;;6.57;;
24619;SDS011;12763;55.802;37.404;2022-12-11T15:51:22;18.00;;;7.63;;
24619;SDS011;12763;55.802;37.404;2022-12-11T15:53:52;21.20;;;7.85;;
24619;SDS011;12763;55.802;37.404;2022-12-11T15:56:18;18.55;;;7.60;;
24619;SDS011;12763;55.802;37.404;2022-12-11T15:58:47;13.02;;;7.55;;
24619;SDS011;12763;55.802;37.404;2022-12-11T16:01:17;17.63;;;7.93;;
24619;SDS011;12763;55.802;37.404;2022-12-11T16:03:43;15.77;;;8.02;;
24619;SDS011;12763;55.802;37.404;2022-12-11T16:06:14;16.33;;;7.93;;
24619;SDS011;12763;55.802;37.404;2022-12-11T16:08:44;18.95;;;8.98;;
24619;SDS011;12763;55.802;37.404;2022-12-11T16:11:11;14.88;;;7.30;;
24619;SDS011;12763;55.802;37.404;2022-12-11T16:13:38;13.77;;;6.93;;
24619;SDS011;12763;55.802;37.404;2022-12-11T16:16:05;14.95;;;7.65;;
24619;SDS011;12763;55.802;37.404;2022-12-11T16:18:31;13.60;;;7.13;;
24619;SDS011;12763;55.802;37.404;2022-12-11T16:20:57;19.10;;;8.77;;
24619;SDS011;12763;55.802;37.404;2022-12-11T16:23:33;12.57;;;6.53;;
24619;SDS011;12763;55.802;37.404;2022-12-11T16:26:04;14.02;;;6.93;;
24619;SDS011;12763;55.802;37.404;2022-12-11T16:28:32;12.15;;;6.78;;
24619;SDS011;12763;55.802;37.404;2022-12-11T16:30:58;18.05;;;7.75;;
24619;SDS011;12763;55.802;37.404;2022-12-11T16:33:24;22.13;;;7.97;;
24619;SDS011;12763;55.802;37.404;2022-12-11T16:35:51;20.85;;;8.75;;
24619;SDS011;12763;55.802;37.404;2022-12-11T16:38:17;14.93;;;8.10;;
24619;SDS011;12763;55.802;37.404;2022-12-11T16:40:43;16.20;;;7.53;;
24619;SDS011;12763;55.802;37.404;2022-12-11T16:43:10;14.82;;;7.30;;